createdAt,value
2019-01-27T00:11:43.715Z,63.75
2019-01-27T00:12:22.630Z,63.01
2019-01-27T00:13:22.854Z,63.32
2019-01-27T00:14:24.375Z,63.32
2019-01-27T00:15:22.673Z,63.43
2019-01-27T00:16:22.740Z,61.73
2019-01-27T00:17:22.517Z,62.77
2019-01-27T00:18:22.510Z,63.12
2019-01-27T00:19:22.626Z,63.75
2019-01-27T00:20:22.465Z,64.45
2019-01-27T00:21:22.534Z,64.86
2019-01-27T00:22:22.508Z,64.97
2019-01-27T00:23:22.444Z,65.91
2019-01-27T00:24:22.452Z,64.97
2019-01-27T00:25:22.433Z,65.07
2019-01-27T00:26:22.487Z,66.11
2019-01-27T00:27:22.422Z,66.42
2019-01-27T00:28:22.390Z,66.85
2019-01-27T00:29:22.381Z,65.91
2019-01-27T00:30:22.609Z,67.08
2019-01-27T00:31:22.474Z,66.42
2019-01-27T00:32:22.530Z,66.95
2019-01-27T00:33:22.706Z,67.36
2019-01-27T00:34:22.439Z,66.63
2019-01-27T00:35:22.452Z,66.53
2019-01-27T00:36:22.346Z,66.66
2019-01-27T00:37:22.523Z,66.66
2019-01-27T00:38:22.366Z,67.19
2019-01-27T00:39:22.374Z,65.62
2019-01-27T00:40:22.320Z,66.11
2019-01-27T00:41:22.457Z,64.58
2019-01-27T00:42:22.440Z,65.20
2019-01-27T00:43:22.300Z,64.47
2019-01-27T00:44:22.214Z,63.75
2019-01-27T00:45:22.261Z,64.26
2019-01-27T00:46:22.841Z,63.85
2019-01-27T00:47:22.222Z,63.32
2019-01-27T00:48:22.335Z,63.01
2019-01-27T00:49:22.155Z,63.15
2019-01-27T00:50:22.457Z,64.58
2019-01-27T00:51:22.153Z,64.16
2019-01-27T00:52:22.249Z,65.31
2019-01-27T00:53:22.114Z,65.23
2019-01-27T00:54:22.239Z,64.19
2019-01-27T00:55:22.247Z,63.85
2019-01-27T00:56:22.219Z,64.29
2019-01-27T00:57:22.057Z,64.26
2019-01-27T00:58:22.091Z,65.03
2019-01-27T00:59:22.194Z,65.20
2019-01-27T01:00:22.256Z,65.31
2019-01-27T01:01:26.328Z,65.00
2019-01-27T01:02:26.810Z,65.13
2019-01-27T01:03:22.042Z,64.89
2019-01-27T01:04:22.013Z,65.10
2019-01-27T01:05:22.144Z,65.20
2019-01-27T01:06:22.034Z,66.14
2019-01-27T01:07:22.072Z,66.46
2019-01-27T01:08:21.939Z,66.56
2019-01-27T01:09:21.943Z,65.94
2019-01-27T01:10:21.994Z,66.28
2019-01-27T01:11:21.977Z,66.17
2019-01-27T01:12:22.526Z,67.01
2019-01-27T01:13:22.211Z,66.17
2019-01-27T01:14:27.675Z,67.11
2019-01-27T01:15:21.917Z,67.95
2019-01-27T01:16:22.272Z,67.22
2019-01-27T01:17:21.872Z,68.16
2019-01-27T01:18:21.835Z,67.98
2019-01-27T01:19:22.062Z,67.11
2019-01-27T01:20:21.840Z,66.83
2019-01-27T01:31:42.047Z,67.04
2019-01-27T01:32:41.912Z,67.04
2019-01-27T01:34:12.788Z,67.04
2019-01-27T01:35:12.469Z,67.14
2019-01-27T01:36:43.183Z,69.65
2019-01-27T01:37:43.004Z,69.51
2019-01-27T01:39:13.605Z,68.65
2019-01-27T01:40:13.568Z,68.13
2019-01-27T01:41:44.417Z,66.04
2019-01-27T01:42:44.423Z,65.10
2019-01-27T01:44:14.804Z,65.20
2019-01-27T01:45:14.643Z,65.10
2019-01-27T01:46:45.465Z,65.23
2019-01-27T01:47:45.290Z,66.17
2019-01-27T01:49:15.787Z,66.69
2019-01-27T01:50:15.753Z,68.33
2019-01-27T01:51:48.369Z,70.73
2019-01-27T01:52:46.311Z,67.60
2019-01-27T01:53:46.355Z,67.32
2019-01-27T01:54:46.285Z,68.26
2019-01-27T01:55:46.280Z,68.96
2019-01-27T01:56:46.261Z,69.27
2019-01-27T01:57:46.334Z,69.35
2019-01-27T01:58:46.301Z,68.93
2019-01-27T02:10:06.862Z,68.08
2019-01-27T02:11:06.455Z,68.08
2019-01-27T02:12:39.171Z,67.59
2019-01-27T02:13:37.298Z,68.01
2019-01-27T02:15:07.532Z,69.19
2019-01-27T02:16:07.433Z,69.71
2019-01-27T02:17:38.237Z,70.68
2019-01-27T02:18:38.225Z,71.84
2019-01-27T02:20:08.595Z,71.80
2019-01-27T02:21:08.536Z,72.22
2019-01-27T02:22:39.231Z,73.69
2019-01-27T02:23:39.087Z,73.58
2019-01-27T02:24:39.082Z,74.10
2019-01-27T02:25:39.066Z,74.00
2019-01-27T02:26:39.063Z,74.10
2019-01-27T02:27:39.287Z,74.52
2019-01-27T02:28:39.025Z,72.75
2019-01-27T02:29:39.047Z,72.75
2019-01-27T02:30:39.181Z,72.92
2019-01-27T02:31:38.992Z,72.08
2019-01-27T02:32:39.059Z,67.88
2019-01-27T02:33:39.122Z,68.32
2019-01-27T02:34:38.988Z,68.22
2019-01-27T02:35:38.987Z,67.91
2019-01-27T02:36:39.209Z,68.01
2019-01-27T02:37:38.987Z,67.59
2019-01-27T02:38:38.998Z,67.77
2019-01-27T02:39:38.925Z,67.38
2019-01-27T02:40:38.907Z,67.38
2019-01-27T02:41:38.890Z,67.59
2019-01-27T02:42:38.932Z,68.01
2019-01-27T02:43:38.974Z,69.26
2019-01-27T02:44:38.867Z,68.95
2019-01-27T02:45:38.886Z,69.82
2019-01-27T02:46:38.869Z,72.40
2019-01-27T02:47:39.015Z,73.75
2019-01-27T02:48:39.106Z,73.27
2019-01-27T02:49:38.812Z,73.24
2019-01-27T02:50:38.792Z,73.58
2019-01-27T02:51:38.802Z,72.53
2019-01-27T02:52:38.796Z,70.97
2019-01-27T02:53:38.796Z,70.45
2019-01-27T02:54:38.859Z,70.24
2019-01-27T02:55:38.736Z,69.61
2019-01-27T02:56:38.771Z,69.64
2019-01-27T02:57:38.735Z,70.48
2019-01-27T02:58:38.720Z,70.68
2019-01-27T02:59:38.731Z,70.83
2019-01-27T03:00:38.716Z,71.34
2019-01-27T03:01:38.776Z,71.97
2019-01-27T03:02:38.738Z,72.92
2019-01-27T03:03:38.685Z,72.29
2019-01-27T03:04:38.697Z,72.29
2019-01-27T03:05:38.698Z,72.39
2019-01-27T03:06:38.666Z,72.29
2019-01-27T03:07:38.965Z,72.19
2019-01-27T03:08:38.694Z,72.29
2019-01-27T03:09:38.590Z,72.92
2019-01-27T03:10:38.579Z,72.71
2019-01-27T03:11:38.574Z,73.86
2019-01-27T03:12:38.557Z,73.65
2019-01-27T03:13:38.542Z,73.96
2019-01-27T03:14:38.551Z,74.35
2019-01-27T03:15:38.534Z,74.90
2019-01-27T03:16:38.651Z,74.80
2019-01-27T03:17:38.554Z,74.24
2019-01-27T03:18:38.532Z,74.07
2019-01-27T03:19:38.593Z,74.24
2019-01-27T03:20:38.496Z,74.14
2019-01-27T03:21:38.573Z,74.17
2019-01-27T03:22:38.496Z,73.23
2019-01-27T03:23:38.451Z,73.82
2019-01-27T03:24:38.491Z,74.04
2019-01-27T03:25:38.420Z,74.14
2019-01-27T03:26:38.406Z,73.23
2019-01-27T03:27:38.426Z,73.82
2019-01-27T03:28:38.404Z,73.86
2019-01-27T03:29:38.380Z,74.69
2019-01-27T03:30:38.431Z,74.90
2019-01-27T03:31:38.363Z,74.90
2019-01-27T03:32:38.381Z,75.74
2019-01-27T03:33:38.354Z,75.84
2019-01-27T03:34:38.337Z,75.11
2019-01-27T03:35:38.340Z,75.84
2019-01-27T03:36:38.336Z,75.11
2019-01-27T03:37:38.293Z,74.69
2019-01-27T03:38:38.321Z,74.49
2019-01-27T03:39:38.340Z,74.17
2019-01-27T03:40:38.308Z,74.17
2019-01-27T03:41:38.331Z,73.82
2019-01-27T03:42:38.283Z,74.98
2019-01-27T03:43:38.281Z,74.66
2019-01-27T03:44:38.233Z,74.98
2019-01-27T03:45:38.209Z,73.93
2019-01-27T03:46:38.264Z,73.16
2019-01-27T03:47:38.369Z,74.04
2019-01-27T03:48:38.249Z,73.51
2019-01-27T03:49:38.196Z,72.25
2019-01-27T03:50:38.213Z,72.05
2019-01-27T03:51:38.168Z,72.47
2019-01-27T03:52:38.417Z,72.25
2019-01-27T03:53:38.590Z,72.36
2019-01-27T03:54:38.270Z,72.12
2019-01-27T03:55:38.124Z,72.57
2019-01-27T03:56:38.464Z,72.05
2019-01-27T03:57:38.182Z,72.25
2019-01-27T03:58:38.138Z,72.47
2019-01-27T03:59:38.246Z,72.15
2019-01-27T04:00:38.064Z,72.02
2019-01-27T04:01:38.052Z,72.02
2019-01-27T04:02:38.104Z,71.21
2019-01-27T04:03:38.056Z,71.18
2019-01-27T04:04:38.216Z,71.28
2019-01-27T04:05:38.061Z,72.02
2019-01-27T04:06:37.987Z,72.64
2019-01-27T04:07:37.984Z,73.90
2019-01-27T04:08:37.964Z,73.79
2019-01-27T04:09:38.020Z,74.10
2019-01-27T04:10:38.196Z,73.47
2019-01-27T04:11:38.031Z,72.75
2019-01-27T04:12:37.921Z,72.12
2019-01-27T04:13:37.975Z,71.18
2019-01-27T04:14:37.903Z,70.34
2019-01-27T04:15:38.132Z,70.45
2019-01-27T04:16:37.893Z,70.34
2019-01-27T04:17:37.910Z,70.13
2019-01-27T04:18:37.965Z,70.45
2019-01-27T04:19:38.064Z,70.65
2019-01-27T04:20:37.916Z,70.76
2019-01-27T04:21:37.839Z,71.08
2019-01-27T04:22:37.841Z,71.08
2019-01-27T04:23:37.823Z,70.86
2019-01-27T04:24:37.845Z,70.24
2019-01-27T04:25:37.808Z,70.13
2019-01-27T04:26:37.814Z,71.08
2019-01-27T04:27:37.758Z,72.22
2019-01-27T04:28:37.769Z,72.33
2019-01-27T04:29:37.734Z,73.06
2019-01-27T04:30:37.756Z,74.00
2019-01-27T04:31:37.938Z,74.10
2019-01-27T04:32:37.706Z,75.26
2019-01-27T04:33:37.947Z,75.57
2019-01-27T04:34:37.710Z,74.84
2019-01-27T04:35:37.984Z,74.84
2019-01-27T04:36:37.762Z,75.15
2019-01-27T04:37:37.759Z,75.29
2019-01-27T04:38:37.825Z,75.92
2019-01-27T04:39:37.687Z,74.98
2019-01-27T04:40:37.768Z,73.93
2019-01-27T04:41:38.195Z,73.09
2019-01-27T04:42:37.612Z,71.94
2019-01-27T04:43:37.635Z,72.47
2019-01-27T04:44:37.687Z,72.36
2019-01-27T04:45:38.086Z,72.36
2019-01-27T04:46:38.062Z,72.57
2019-01-27T04:47:37.696Z,73.82
2019-01-27T04:48:38.169Z,74.98
2019-01-27T04:49:37.606Z,74.04
2019-01-27T04:50:37.573Z,74.66
2019-01-27T04:51:37.526Z,75.81
2019-01-27T04:52:37.523Z,74.87
2019-01-27T04:53:37.609Z,75.08
2019-01-27T04:54:37.951Z,74.59
2019-01-27T04:55:37.499Z,75.29
2019-01-27T04:56:37.566Z,75.81
2019-01-27T04:57:37.691Z,75.60
2019-01-27T04:58:38.210Z,74.98
2019-01-27T04:59:37.542Z,75.57
2019-01-27T05:00:37.719Z,75.88
2019-01-27T05:01:37.495Z,74.52
2019-01-27T05:02:37.390Z,72.71
2019-01-27T05:03:37.481Z,72.71
2019-01-27T05:04:37.383Z,72.22
2019-01-27T05:05:37.824Z,71.49
2019-01-27T05:06:38.102Z,72.64
2019-01-27T05:07:37.504Z,72.25
2019-01-27T05:08:38.107Z,71.94
2019-01-27T05:09:37.481Z,72.57
2019-01-27T05:10:37.404Z,72.47
2019-01-27T05:11:37.309Z,73.09
2019-01-27T05:12:37.498Z,72.88
2019-01-27T05:13:37.294Z,72.43
2019-01-27T05:14:37.433Z,72.99
2019-01-27T05:15:37.256Z,73.19
2019-01-27T05:16:37.412Z,73.51
2019-01-27T05:17:38.775Z,73.72
2019-01-27T05:18:37.676Z,73.61
2019-01-27T05:19:37.272Z,73.93
2019-01-27T05:20:38.292Z,72.88
2019-01-27T05:21:37.727Z,72.67
2019-01-27T05:22:37.923Z,74.00
2019-01-27T05:23:37.303Z,74.14
2019-01-27T05:24:38.359Z,74.87
2019-01-27T05:25:37.775Z,75.71
2019-01-27T05:26:37.139Z,76.12
2019-01-27T05:27:37.426Z,75.71
2019-01-27T05:28:38.007Z,76.44
2019-01-27T05:29:37.874Z,76.12
2019-01-27T05:30:37.944Z,76.12
2019-01-27T05:31:37.135Z,76.86
2019-01-27T05:32:37.503Z,77.06
2019-01-27T05:33:37.365Z,76.54
2019-01-27T05:34:37.145Z,76.02
2019-01-27T05:35:37.272Z,76.23
2019-01-27T05:36:37.284Z,76.54
2019-01-27T05:37:37.017Z,77.38
2019-01-27T05:38:37.823Z,76.86
2019-01-27T05:39:36.996Z,76.44
2019-01-27T05:40:37.378Z,75.84
2019-01-27T05:41:38.253Z,75.39
2019-01-27T05:42:37.011Z,74.07
2019-01-27T05:43:37.084Z,75.43
2019-01-27T05:44:37.152Z,75.53
2019-01-27T05:45:37.173Z,75.22
2019-01-27T05:46:36.920Z,74.90
2019-01-27T05:47:36.941Z,74.90
2019-01-27T05:48:36.947Z,76.16
2019-01-27T05:49:36.958Z,76.57
2019-01-27T05:50:36.936Z,76.79
2019-01-27T05:51:36.970Z,76.37
2019-01-27T05:52:37.026Z,76.37
2019-01-27T05:53:37.051Z,75.11
2019-01-27T05:54:37.122Z,75.71
2019-01-27T05:55:37.255Z,75.84
2019-01-27T05:56:37.100Z,74.90
2019-01-27T05:57:36.824Z,74.17
2019-01-27T05:58:36.826Z,74.27
2019-01-27T05:59:36.784Z,73.96
2019-01-27T06:00:36.833Z,74.27
2019-01-27T06:01:37.036Z,73.96
2019-01-27T06:02:36.834Z,74.38
2019-01-27T06:03:36.746Z,75.81
2019-01-27T06:04:36.858Z,75.81
2019-01-27T06:05:37.702Z,75.81
2019-01-27T06:06:36.726Z,75.67
2019-01-27T06:07:36.796Z,75.46
2019-01-27T06:08:37.050Z,74.84
2019-01-27T06:09:37.405Z,74.94
2019-01-27T06:10:36.897Z,74.63
2019-01-27T06:11:36.893Z,75.57
2019-01-27T06:12:36.892Z,75.57
2019-01-27T06:13:36.973Z,75.46
2019-01-27T06:14:36.634Z,75.57
2019-01-27T06:15:37.500Z,74.94
2019-01-27T06:16:36.748Z,74.63
2019-01-27T06:17:36.616Z,74.31
2019-01-27T06:18:36.813Z,74.00
2019-01-27T06:19:36.826Z,73.90
2019-01-27T06:20:36.561Z,73.90
2019-01-27T06:21:36.581Z,74.42
2019-01-27T06:22:36.573Z,74.42
2019-01-27T06:23:36.993Z,74.07
2019-01-27T06:24:36.529Z,74.59
2019-01-27T06:25:36.604Z,74.59
2019-01-27T06:26:36.601Z,73.93
2019-01-27T06:27:36.518Z,73.83
2019-01-27T06:28:36.478Z,73.90
2019-01-27T06:29:36.470Z,72.02
2019-01-27T06:30:36.493Z,71.19
2019-01-27T06:31:36.459Z,71.11
2019-01-27T06:32:37.078Z,70.07
2019-01-27T06:33:36.456Z,71.08
2019-01-27T06:34:36.596Z,70.14
2019-01-27T06:35:36.398Z,68.89
2019-01-27T06:36:36.578Z,69.20
2019-01-27T06:37:36.644Z,68.99
2019-01-27T06:38:36.383Z,68.96
2019-01-27T06:39:36.946Z,69.69
2019-01-27T06:40:36.760Z,69.07
2019-01-27T06:41:36.548Z,69.17
2019-01-27T06:42:36.646Z,68.33
2019-01-27T06:43:36.623Z,67.19
2019-01-27T06:44:36.350Z,67.50
2019-01-27T06:45:36.603Z,67.81
2019-01-27T06:46:36.300Z,68.96
2019-01-27T06:47:36.544Z,70.28
2019-01-27T06:48:36.443Z,68.93
2019-01-27T06:49:36.316Z,68.62
2019-01-27T06:50:36.393Z,69.69
2019-01-27T06:51:36.313Z,70.66
2019-01-27T06:52:36.477Z,72.05
2019-01-27T06:53:36.348Z,72.78
2019-01-27T06:54:36.278Z,72.61
2019-01-27T06:55:36.226Z,73.55
2019-01-27T06:56:36.242Z,73.79
2019-01-27T06:57:36.465Z,73.06
2019-01-27T06:58:36.500Z,73.06
2019-01-27T06:59:36.212Z,73.55
2019-01-27T07:00:36.527Z,73.55
2019-01-27T07:01:36.498Z,73.86
2019-01-27T07:02:36.209Z,74.07
2019-01-27T07:03:36.683Z,73.96
2019-01-27T07:04:36.543Z,74.07
2019-01-27T07:05:36.185Z,74.38
2019-01-27T07:06:36.081Z,74.28
2019-01-27T07:07:36.240Z,74.63
2019-01-27T07:08:36.103Z,73.86
2019-01-27T07:09:36.077Z,74.18
2019-01-27T07:10:36.520Z,74.18
2019-01-27T07:11:36.096Z,74.28
2019-01-27T07:12:36.118Z,73.96
2019-01-27T07:13:36.505Z,73.86
2019-01-27T07:14:36.538Z,73.86
2019-01-27T07:15:36.198Z,73.55
2019-01-27T07:16:36.102Z,74.14
2019-01-27T07:17:36.318Z,74.07
2019-01-27T07:18:36.165Z,74.49
2019-01-27T07:19:35.956Z,74.28
2019-01-27T07:20:36.314Z,74.38
2019-01-27T07:21:36.206Z,74.28
2019-01-27T07:22:35.902Z,74.14
2019-01-27T07:23:35.969Z,74.07
2019-01-27T07:24:36.159Z,73.96
2019-01-27T07:25:36.361Z,74.24
2019-01-27T07:26:35.878Z,73.93
2019-01-27T07:27:36.207Z,73.72
2019-01-27T07:28:36.728Z,73.93
2019-01-27T07:29:35.863Z,73.83
2019-01-27T07:30:35.825Z,73.93
2019-01-27T07:31:35.957Z,74.14
2019-01-27T07:32:36.316Z,73.93
2019-01-27T07:33:35.837Z,73.93
2019-01-27T07:34:36.325Z,72.99
2019-01-27T07:35:35.814Z,73.93
2019-01-27T07:36:35.767Z,73.30
2019-01-27T07:37:36.081Z,73.93
2019-01-27T07:38:35.820Z,74.04
2019-01-27T07:39:36.333Z,73.93
2019-01-27T07:40:36.178Z,74.14
2019-01-27T07:41:35.862Z,73.90
2019-01-27T07:42:35.767Z,73.90
2019-01-27T07:43:35.714Z,74.21
2019-01-27T07:44:36.039Z,73.97
2019-01-27T07:45:35.731Z,73.72
2019-01-27T07:46:36.049Z,73.83
2019-01-27T07:47:36.055Z,73.93
2019-01-27T07:48:35.650Z,72.34
2019-01-27T07:49:35.756Z,72.24
2019-01-27T07:50:36.383Z,71.92
2019-01-27T07:51:35.594Z,71.92
2019-01-27T07:52:35.777Z,71.78
2019-01-27T07:53:35.577Z,71.68
2019-01-27T07:54:35.626Z,70.64
2019-01-27T07:55:35.557Z,71.26
2019-01-27T07:56:35.696Z,71.37
2019-01-27T07:57:35.553Z,70.22
2019-01-27T07:58:36.752Z,70.32
2019-01-27T07:59:36.065Z,69.73
2019-01-27T08:00:36.145Z,70.25
2019-01-27T08:01:36.050Z,72.02
2019-01-27T08:02:35.640Z,72.75
2019-01-27T08:03:35.625Z,73.69
2019-01-27T08:04:35.579Z,72.62
2019-01-27T08:05:35.450Z,72.41
2019-01-27T08:06:36.022Z,71.26
2019-01-27T08:07:35.582Z,70.84
2019-01-27T08:08:35.447Z,70.92
2019-01-27T08:09:35.419Z,70.50
2019-01-27T08:10:35.667Z,70.40
2019-01-27T08:11:35.409Z,70.61
2019-01-27T08:12:35.369Z,70.40
2019-01-27T08:13:35.513Z,70.40
2019-01-27T08:14:35.871Z,69.15
2019-01-27T08:15:38.731Z,69.56
2019-01-27T08:16:35.515Z,69.67
2019-01-27T08:17:35.390Z,69.04
2019-01-27T08:18:35.312Z,69.53
2019-01-27T08:19:35.327Z,69.56
2019-01-27T08:20:35.655Z,69.07
2019-01-27T08:21:35.401Z,69.18
2019-01-27T08:22:35.260Z,69.73
2019-01-27T08:23:35.979Z,69.42
2019-01-27T08:24:35.375Z,69.53
2019-01-27T08:25:35.313Z,70.46
2019-01-27T08:26:35.389Z,71.95
2019-01-27T08:27:35.589Z,72.75
2019-01-27T08:28:35.490Z,74.07
2019-01-27T08:29:35.196Z,73.52
2019-01-27T08:30:35.178Z,72.38
2019-01-27T08:31:35.432Z,72.06
2019-01-27T08:32:35.380Z,71.41
2019-01-27T08:33:35.236Z,71.82
2019-01-27T08:34:35.237Z,72.03
2019-01-27T08:35:35.217Z,72.31
2019-01-27T08:36:35.254Z,71.97
2019-01-27T08:37:35.150Z,71.41
2019-01-27T08:38:35.196Z,70.10
2019-01-27T08:39:35.579Z,68.62
2019-01-27T08:40:35.285Z,67.55
2019-01-27T08:41:35.415Z,66.17
2019-01-27T08:42:35.139Z,66.65
2019-01-27T08:43:35.053Z,66.44
2019-01-27T08:44:35.024Z,66.35
2019-01-27T08:45:37.522Z,63.75
2019-01-27T08:46:35.348Z,63.71
2019-01-27T08:47:36.353Z,65.01
2019-01-27T08:48:35.095Z,65.25
2019-01-27T08:49:34.971Z,67.18
2019-01-27T08:50:35.041Z,68.25
2019-01-27T08:51:35.028Z,69.40
2019-01-27T08:52:35.642Z,70.75
2019-01-27T08:53:34.942Z,71.27
2019-01-27T08:54:35.614Z,72.38
2019-01-27T08:55:34.927Z,70.40
2019-01-27T08:56:35.025Z,70.61
2019-01-27T08:57:34.893Z,70.68
2019-01-27T08:58:34.922Z,69.43
2019-01-27T08:59:38.382Z,67.05
2019-01-27T09:00:34.858Z,67.18
2019-01-27T09:01:35.035Z,67.21
2019-01-27T09:02:35.125Z,68.91
2019-01-27T09:03:34.971Z,70.05
2019-01-27T09:04:34.956Z,70.92
2019-01-27T09:05:34.814Z,71.23
2019-01-27T09:06:35.383Z,71.96
2019-01-27T09:07:35.161Z,71.86
2019-01-27T09:08:35.008Z,72.48
2019-01-27T09:09:34.783Z,72.48
2019-01-27T09:10:35.612Z,72.27
2019-01-27T09:11:34.954Z,72.38
2019-01-27T09:12:34.758Z,72.27
2019-01-27T09:13:34.987Z,71.86
2019-01-27T09:14:34.754Z,71.86
2019-01-27T09:15:34.945Z,72.48
2019-01-27T09:16:35.244Z,72.45
2019-01-27T09:17:34.719Z,71.51
2019-01-27T09:18:35.079Z,71.54
2019-01-27T09:19:34.686Z,72.34
2019-01-27T09:20:34.726Z,72.27
2019-01-27T09:21:34.626Z,72.03
2019-01-27T09:22:34.959Z,72.17
2019-01-27T09:23:34.660Z,72.06
2019-01-27T09:24:36.359Z,72.06
2019-01-27T09:25:34.589Z,72.17
2019-01-27T09:26:34.763Z,71.96
2019-01-27T09:27:34.692Z,72.27
2019-01-27T09:28:34.554Z,71.96
2019-01-27T09:29:34.542Z,71.96
2019-01-27T09:30:34.889Z,72.38
2019-01-27T09:31:34.677Z,72.27
2019-01-27T09:32:34.538Z,72.79
2019-01-27T09:33:34.572Z,72.45
2019-01-27T09:34:34.619Z,72.45
2019-01-27T09:35:34.540Z,71.82
2019-01-27T09:36:34.751Z,71.82
2019-01-27T09:37:34.459Z,70.89
2019-01-27T09:38:34.557Z,72.24
2019-01-27T09:39:34.529Z,72.31
2019-01-27T09:40:34.898Z,71.72
2019-01-27T09:41:34.491Z,72.13
2019-01-27T09:42:34.404Z,71.51
2019-01-27T09:43:34.435Z,72.10
2019-01-27T09:44:34.419Z,72.31
2019-01-27T09:45:34.380Z,71.79
2019-01-27T09:46:35.008Z,71.65
2019-01-27T09:47:34.415Z,70.54
2019-01-27T09:48:34.345Z,71.79
2019-01-27T09:49:35.454Z,70.61
2019-01-27T09:50:34.367Z,70.79
2019-01-27T09:51:34.339Z,70.48
2019-01-27T09:52:34.517Z,70.75
2019-01-27T09:53:34.458Z,70.34
2019-01-27T09:54:34.293Z,69.82
2019-01-27T09:55:34.368Z,68.78
2019-01-27T09:56:34.268Z,69.58
2019-01-27T09:57:34.392Z,69.37
2019-01-27T09:58:34.501Z,69.27
2019-01-27T09:59:34.310Z,68.65
2019-01-27T10:00:34.212Z,68.78
2019-01-27T10:01:34.206Z,68.16
2019-01-27T10:02:34.975Z,68.54
2019-01-27T10:03:34.250Z,68.85
2019-01-27T10:04:34.291Z,69.30
2019-01-27T10:05:34.240Z,69.30
2019-01-27T10:06:34.847Z,69.09
2019-01-27T10:07:34.139Z,69.40
2019-01-27T10:08:35.516Z,69.71
2019-01-27T10:09:34.149Z,70.54
2019-01-27T10:10:34.270Z,70.34
2019-01-27T10:11:34.189Z,70.72
2019-01-27T10:12:34.448Z,69.37
2019-01-27T10:13:34.117Z,69.86
2019-01-27T10:14:34.118Z,68.82
2019-01-27T10:15:34.061Z,67.58
2019-01-27T10:16:34.049Z,67.68
2019-01-27T10:17:35.633Z,67.82
2019-01-27T10:18:34.222Z,68.44
2019-01-27T10:19:34.247Z,68.75
2019-01-27T10:20:34.031Z,67.82
2019-01-27T10:21:33.979Z,67.61
2019-01-27T10:22:34.008Z,67.61
2019-01-27T10:23:34.005Z,69.30
2019-01-27T10:24:34.085Z,68.88
2019-01-27T10:25:34.258Z,68.88
2019-01-27T10:26:33.996Z,70.03
2019-01-27T10:27:33.970Z,70.72
2019-01-27T10:28:33.936Z,70.72
2019-01-27T10:29:34.199Z,68.85
2019-01-27T10:30:34.109Z,68.68
2019-01-27T10:31:33.896Z,67.64
2019-01-27T10:32:34.000Z,69.71
2019-01-27T10:33:34.074Z,70.13
2019-01-27T10:34:34.222Z,69.79
2019-01-27T10:35:33.913Z,70.41
2019-01-27T10:36:33.825Z,69.27
2019-01-27T10:37:34.158Z,67.50
2019-01-27T10:38:33.840Z,68.54
2019-01-27T10:39:33.935Z,68.85
2019-01-27T10:40:39.828Z,67.61
2019-01-27T10:41:34.780Z,67.33
2019-01-27T10:42:33.763Z,67.54
2019-01-27T10:43:33.890Z,67.85
2019-01-27T10:44:33.745Z,68.05
2019-01-27T10:45:33.852Z,67.71
2019-01-27T10:46:34.013Z,68.85
2019-01-27T10:47:33.767Z,70.28
2019-01-27T10:48:33.759Z,68.90
2019-01-27T10:49:35.600Z,67.82
2019-01-27T10:50:33.877Z,66.96
2019-01-27T10:51:33.784Z,64.79
2019-01-27T10:52:33.797Z,64.69
2019-01-27T10:53:34.990Z,65.00
2019-01-27T10:54:33.684Z,64.79
2019-01-27T10:55:33.677Z,65.80
2019-01-27T10:56:33.629Z,66.00
2019-01-27T10:57:33.677Z,65.45
2019-01-27T10:58:33.584Z,65.87
2019-01-27T10:59:34.543Z,64.83
2019-01-27T11:00:33.607Z,64.73
2019-01-27T11:01:33.664Z,64.62
2019-01-27T11:02:37.242Z,64.62
2019-01-27T11:03:33.600Z,64.73
2019-01-27T11:04:33.603Z,64.52
2019-01-27T11:05:33.680Z,64.11
2019-01-27T11:06:33.509Z,63.79
2019-01-27T11:07:33.698Z,64.42
2019-01-27T11:08:33.561Z,64.00
2019-01-27T11:09:33.502Z,62.76
2019-01-27T11:10:33.449Z,62.97
2019-01-27T11:11:33.456Z,62.84
2019-01-27T11:12:33.542Z,62.63
2019-01-27T11:13:34.045Z,62.60
2019-01-27T11:14:33.416Z,63.12
2019-01-27T11:15:33.506Z,62.46
2019-01-27T11:16:33.601Z,61.22
2019-01-27T11:17:33.500Z,60.68
2019-01-27T11:18:33.674Z,60.47
2019-01-27T11:19:33.613Z,61.69
2019-01-27T11:20:39.755Z,62.38
2019-01-27T11:21:34.533Z,61.35
2019-01-27T11:22:33.353Z,60.83
2019-01-27T11:23:33.771Z,60.73
2019-01-27T11:24:33.314Z,60.52
2019-01-27T11:25:33.355Z,61.01
2019-01-27T11:26:33.353Z,60.57
2019-01-27T11:27:34.943Z,59.95
2019-01-27T11:28:33.294Z,59.33
2019-01-27T11:29:33.320Z,59.64
2019-01-27T11:30:33.237Z,60.51
2019-01-27T11:31:33.278Z,61.68
2019-01-27T11:32:33.311Z,60.77
2019-01-27T11:33:33.228Z,61.50
2019-01-27T11:34:33.223Z,60.67
2019-01-27T11:35:33.175Z,60.98
2019-01-27T11:36:33.169Z,62.22
2019-01-27T11:37:33.173Z,63.56
2019-01-27T11:38:33.155Z,63.81
2019-01-27T11:39:33.195Z,61.44
2019-01-27T11:40:33.325Z,60.89
2019-01-27T11:41:33.147Z,59.14
2019-01-27T11:42:33.149Z,58.79
2019-01-27T11:43:33.237Z,58.81
2019-01-27T11:44:33.101Z,59.44
2019-01-27T11:45:33.072Z,59.74
2019-01-27T11:46:33.058Z,59.64
2019-01-27T11:47:33.060Z,61.40
2019-01-27T11:48:33.039Z,61.96
2019-01-27T11:49:33.114Z,62.26
2019-01-27T11:50:33.021Z,60.59
2019-01-27T11:51:33.062Z,60.89
2019-01-27T11:52:32.995Z,61.77
2019-01-27T11:53:33.045Z,62.38
2019-01-27T11:54:33.001Z,61.09
2019-01-27T11:55:32.969Z,59.14
2019-01-27T11:56:32.963Z,59.96
2019-01-27T11:57:32.974Z,60.55
2019-01-27T11:58:33.061Z,59.39
2019-01-27T11:59:33.133Z,56.51
2019-01-27T12:00:33.000Z,57.95
2019-01-27T12:01:32.911Z,57.03
2019-01-27T12:02:32.940Z,56.93
2019-01-27T12:03:32.883Z,57.54
2019-01-27T12:04:32.893Z,57.06
2019-01-27T12:05:32.877Z,56.41
2019-01-27T12:06:32.876Z,55.98
2019-01-27T12:07:32.862Z,55.90
2019-01-27T12:08:32.830Z,56.93
2019-01-27T12:09:32.874Z,57.03
2019-01-27T12:10:32.841Z,56.41
2019-01-27T12:11:32.788Z,56.41
2019-01-27T12:12:32.830Z,56.00
2019-01-27T12:13:32.804Z,55.59
2019-01-27T12:14:32.778Z,56.34
2019-01-27T12:15:32.892Z,56.34
2019-01-27T12:16:32.760Z,56.44
2019-01-27T12:17:32.759Z,57.18
2019-01-27T12:18:32.744Z,58.01
2019-01-27T12:19:32.760Z,59.75
2019-01-27T12:20:32.696Z,60.17
2019-01-27T12:21:32.708Z,60.45
2019-01-27T12:22:32.679Z,60.45
2019-01-27T12:23:32.658Z,61.14
2019-01-27T12:24:32.665Z,61.44
2019-01-27T12:25:32.661Z,61.93
2019-01-27T12:26:32.648Z,62.52
2019-01-27T12:27:32.666Z,60.98
2019-01-27T12:28:32.627Z,60.75
2019-01-27T12:29:32.624Z,60.33
2019-01-27T12:30:32.589Z,60.10
2019-01-27T12:31:32.590Z,60.51
2019-01-27T12:32:32.600Z,60.41
2019-01-27T12:33:32.607Z,60.61
2019-01-27T12:34:32.577Z,60.00
2019-01-27T12:35:32.554Z,60.10
2019-01-27T12:36:32.555Z,60.41
2019-01-27T12:37:32.521Z,60.61
2019-01-27T12:38:32.515Z,60.31
2019-01-27T12:39:32.490Z,60.10
2019-01-27T12:40:32.489Z,60.72
2019-01-27T12:41:32.466Z,60.51
2019-01-27T12:42:32.512Z,60.61
2019-01-27T12:43:32.443Z,60.31
2019-01-27T12:44:32.450Z,61.02
2019-01-27T12:45:32.709Z,60.72
2019-01-27T12:46:32.428Z,60.82
2019-01-27T12:47:32.417Z,60.61
2019-01-27T12:48:32.406Z,61.02
2019-01-27T12:49:32.385Z,61.33
2019-01-27T12:50:32.397Z,61.98
2019-01-27T12:51:32.452Z,61.67
2019-01-27T12:52:32.351Z,63.42
2019-01-27T12:53:32.415Z,62.46
2019-01-27T12:54:32.347Z,62.77
2019-01-27T12:55:32.363Z,63.07
2019-01-27T12:56:32.360Z,62.98
2019-01-27T12:57:32.289Z,62.87
2019-01-27T12:58:32.321Z,62.98
2019-01-27T12:59:32.327Z,62.46
2019-01-27T13:00:32.295Z,62.36
2019-01-27T13:01:32.262Z,63.28
2019-01-27T13:02:32.319Z,62.77
2019-01-27T13:03:32.229Z,63.10
2019-01-27T13:04:32.228Z,63.21
2019-01-27T13:05:32.304Z,64.03
2019-01-27T13:06:32.200Z,62.80
2019-01-27T13:07:32.212Z,62.29
2019-01-27T13:08:32.180Z,61.87
2019-01-27T13:09:32.200Z,61.54
2019-01-27T13:10:32.166Z,61.98
2019-01-27T13:11:32.156Z,62.39
2019-01-27T13:12:32.149Z,61.60
2019-01-27T13:13:32.163Z,62.11
2019-01-27T13:14:32.114Z,62.11
2019-01-27T13:15:32.177Z,62.41
2019-01-27T13:16:32.086Z,61.83
2019-01-27T13:17:32.095Z,62.21
2019-01-27T13:18:32.383Z,62.04
2019-01-27T13:19:32.071Z,62.14
2019-01-27T13:20:32.051Z,62.93
2019-01-27T13:21:32.036Z,62.52
2019-01-27T13:22:32.037Z,63.03
2019-01-27T13:23:32.112Z,62.93
2019-01-27T13:24:32.031Z,62.31
2019-01-27T13:25:32.048Z,62.01
2019-01-27T13:26:31.997Z,61.18
2019-01-27T13:27:32.012Z,59.95
2019-01-27T13:28:31.992Z,58.23
2019-01-27T13:29:31.974Z,58.91
2019-01-27T13:30:31.933Z,60.71